createdAt,value
2018-06-14T00:01:56.038Z,13.00
2018-06-14T00:04:25.326Z,13.00
2018-06-14T00:06:53.746Z,13.00
2018-06-14T00:09:22.214Z,13.00
2018-06-14T00:11:50.650Z,12.90
2018-06-14T00:14:19.063Z,12.90
2018-06-14T00:16:47.542Z,12.90
2018-06-14T00:19:16.752Z,12.90
2018-06-14T00:21:45.167Z,12.90
2018-06-14T00:24:13.605Z,12.80
2018-06-14T00:26:42.036Z,12.80
2018-06-14T00:29:10.593Z,12.70
2018-06-14T00:31:39.081Z,12.80
2018-06-14T00:34:07.498Z,12.70
2018-06-14T00:36:35.932Z,12.70
2018-06-14T00:39:05.940Z,12.70
2018-06-14T00:41:34.487Z,12.70
2018-06-14T00:44:03.279Z,12.70
2018-06-14T00:46:31.834Z,12.60
2018-06-14T00:51:28.359Z,12.70
2018-06-14T00:53:56.858Z,12.70
2018-06-14T00:56:25.378Z,12.70
2018-06-14T00:58:53.777Z,12.80
2018-06-14T01:01:22.278Z,12.80
2018-06-14T01:03:50.707Z,12.90
2018-06-14T01:06:19.286Z,12.90
2018-06-14T01:08:47.746Z,13.00
2018-06-14T01:11:16.183Z,13.10
2018-06-14T01:13:44.630Z,13.10
2018-06-14T01:16:13.098Z,13.10
2018-06-14T01:18:41.526Z,13.20
2018-06-14T01:21:09.970Z,13.20
2018-06-14T01:23:38.597Z,13.20
2018-06-14T01:26:07.042Z,13.30
2018-06-14T01:28:35.457Z,13.20
2018-06-14T01:31:04.178Z,13.20
2018-06-14T01:33:32.589Z,13.20
2018-06-14T01:36:01.014Z,13.30
2018-06-14T01:38:29.450Z,13.20
2018-06-14T01:40:57.878Z,13.20
2018-06-14T01:43:26.329Z,13.20
2018-06-14T01:45:54.912Z,13.30
2018-06-14T01:48:23.569Z,13.30
2018-06-14T01:50:52.111Z,13.30
2018-06-14T01:53:20.713Z,13.30
2018-06-14T01:55:49.143Z,13.30
2018-06-14T01:58:17.682Z,13.30
2018-06-14T02:00:46.204Z,13.40
2018-06-14T02:03:14.721Z,13.40
2018-06-14T02:05:43.146Z,13.50
2018-06-14T02:08:11.622Z,13.50
2018-06-14T02:10:40.075Z,13.50
2018-06-14T02:13:08.514Z,13.50
2018-06-14T02:15:36.979Z,13.60
2018-06-14T02:18:05.474Z,13.60
2018-06-14T02:20:34.050Z,13.60
2018-06-14T02:23:02.742Z,13.70
2018-06-14T02:25:31.268Z,13.70
2018-06-14T02:27:59.841Z,13.70
2018-06-14T02:30:28.454Z,13.70
2018-06-14T02:32:56.902Z,13.80
2018-06-14T02:35:25.454Z,13.80
2018-06-14T02:37:53.926Z,13.80
2018-06-14T02:40:22.618Z,13.80
2018-06-14T02:42:51.050Z,13.80
2018-06-14T02:45:19.503Z,13.80
2018-06-14T02:47:47.922Z,13.80
2018-06-14T02:50:16.434Z,13.80
2018-06-14T02:52:44.897Z,13.80
2018-06-14T02:55:13.334Z,13.80
2018-06-14T02:57:41.850Z,13.80
2018-06-14T03:00:10.360Z,13.70
2018-06-14T03:02:38.877Z,13.80
2018-06-14T03:05:07.467Z,13.70
2018-06-14T03:07:36.457Z,13.70
2018-06-14T03:10:06.040Z,13.70
2018-06-14T03:12:34.454Z,13.70
2018-06-14T03:15:02.994Z,13.60
2018-06-14T03:17:31.528Z,13.70
2018-06-14T03:20:00.062Z,13.70
2018-06-14T03:22:28.554Z,13.70
2018-06-14T03:24:57.677Z,13.60
2018-06-14T03:27:26.082Z,13.60
2018-06-14T03:29:54.702Z,13.60
2018-06-14T03:32:23.433Z,13.50
2018-06-14T03:34:51.969Z,13.50
2018-06-14T03:37:20.453Z,13.50
2018-06-14T03:39:48.876Z,13.40
2018-06-14T03:42:17.452Z,13.40
2018-06-14T03:44:45.942Z,13.40
2018-06-14T03:47:14.378Z,13.30
2018-06-14T03:52:12.418Z,13.40
2018-06-14T03:54:40.826Z,13.40
2018-06-14T03:57:09.637Z,13.50
2018-06-14T03:59:38.098Z,13.50
2018-06-14T04:02:06.873Z,13.50
2018-06-14T04:04:35.293Z,13.50
2018-06-14T04:07:03.769Z,13.60
2018-06-14T04:09:32.197Z,13.70
2018-06-14T04:12:00.637Z,13.80
2018-06-14T04:14:29.126Z,14.00
2018-06-14T04:16:57.578Z,14.20
2018-06-14T04:19:26.114Z,14.40
2018-06-14T04:21:54.687Z,14.50
2018-06-14T04:24:23.165Z,14.70
2018-06-14T04:26:51.804Z,14.90
2018-06-14T04:29:20.365Z,15.00
2018-06-14T04:31:48.770Z,15.10
2018-06-14T04:34:17.182Z,15.20
2018-06-14T04:36:45.642Z,15.20
2018-06-14T04:39:14.072Z,15.30
2018-06-14T04:41:42.672Z,15.30
2018-06-14T04:44:11.171Z,15.30
2018-06-14T04:46:39.597Z,15.30
2018-06-14T04:49:08.050Z,15.30
2018-06-14T04:51:43.918Z,15.30
2018-06-14T04:54:12.630Z,15.40
2018-06-14T04:56:42.223Z,15.30
2018-06-14T04:59:11.149Z,15.40
2018-06-14T05:01:39.621Z,15.40
2018-06-14T05:06:36.205Z,15.50
2018-06-14T05:09:08.186Z,15.40
2018-06-14T05:11:36.630Z,15.40
2018-06-14T05:14:05.386Z,15.50
2018-06-14T05:16:33.842Z,15.50
2018-06-14T05:19:02.286Z,15.50
2018-06-14T05:21:30.768Z,15.50
2018-06-14T05:23:59.199Z,15.50
2018-06-14T05:26:27.652Z,15.50
2018-06-14T05:28:56.235Z,15.50
2018-06-14T05:31:24.687Z,15.50
2018-06-14T05:33:53.212Z,15.40
2018-06-14T05:36:21.704Z,15.50
2018-06-14T05:38:50.137Z,15.50
2018-06-14T05:41:18.594Z,15.50
2018-06-14T05:43:47.098Z,15.50
2018-06-14T05:46:15.530Z,15.60
2018-06-14T05:48:43.951Z,15.60
2018-06-14T05:51:12.526Z,15.50
2018-06-14T05:53:40.969Z,15.50
2018-06-14T05:56:09.444Z,15.50
2018-06-14T05:58:38.790Z,15.50
2018-06-14T06:01:07.383Z,15.50
2018-06-14T06:03:36.091Z,15.60
2018-06-14T06:06:04.612Z,15.60
2018-06-14T06:08:33.054Z,15.60
2018-06-14T06:11:01.510Z,15.60
2018-06-14T06:13:29.962Z,15.70
2018-06-14T06:15:58.414Z,15.80
2018-06-14T06:18:26.858Z,16.00
2018-06-14T06:20:55.326Z,16.20
2018-06-14T06:23:23.890Z,16.30
2018-06-14T06:25:52.319Z,16.50
2018-06-14T06:28:20.910Z,16.70
2018-06-14T06:30:49.375Z,16.90
2018-06-14T06:33:17.895Z,17.00
2018-06-14T06:35:46.345Z,17.10
2018-06-14T06:38:14.890Z,17.30
2018-06-14T06:40:43.426Z,17.40
2018-06-14T06:43:12.034Z,17.50
2018-06-14T06:45:40.710Z,17.60
2018-06-14T06:48:09.278Z,17.60
2018-06-14T06:50:37.986Z,17.60
2018-06-14T06:53:06.713Z,17.70
2018-06-14T06:55:35.158Z,17.60
2018-06-14T06:58:03.641Z,17.70
2018-06-14T07:00:32.074Z,17.60
2018-06-14T07:03:00.514Z,17.60
2018-06-14T07:05:29.074Z,17.60
2018-06-14T07:07:57.499Z,17.70
2018-06-14T07:10:26.004Z,17.70
2018-06-14T07:12:54.575Z,17.80
2018-06-14T07:15:23.164Z,17.90
2018-06-14T07:17:51.734Z,18.00
2018-06-14T07:20:20.216Z,18.10
2018-06-14T07:22:48.864Z,18.20
2018-06-14T07:25:17.438Z,18.30
2018-06-14T07:27:46.066Z,18.30
2018-06-14T07:30:14.667Z,18.30
2018-06-14T07:32:43.242Z,18.30
2018-06-14T07:35:11.835Z,18.40
2018-06-14T07:40:08.523Z,18.50
2018-06-14T07:42:37.002Z,18.50
2018-06-14T07:45:05.970Z,18.40
2018-06-14T07:47:34.402Z,18.40
2018-06-14T07:50:02.897Z,18.30
2018-06-14T07:52:31.304Z,18.40
2018-06-14T07:54:59.849Z,18.60
2018-06-14T07:57:28.342Z,18.80
2018-06-14T07:59:56.791Z,18.90
2018-06-14T08:02:25.414Z,19.00
2018-06-14T08:04:53.983Z,19.00
2018-06-14T08:07:22.393Z,19.00
2018-06-14T08:09:50.817Z,18.90
2018-06-14T08:12:19.347Z,18.80
2018-06-14T08:14:47.750Z,18.80
2018-06-14T08:19:44.477Z,18.80
2018-06-14T08:22:12.933Z,18.80
2018-06-14T08:24:41.370Z,18.80
2018-06-14T08:27:10.010Z,18.70
2018-06-14T08:29:38.443Z,18.90
2018-06-14T08:32:06.885Z,18.90
2018-06-14T08:34:35.447Z,19.00
2018-06-14T08:37:04.142Z,18.90
2018-06-14T08:39:32.660Z,19.00
2018-06-14T08:42:01.142Z,19.00
2018-06-14T08:44:29.698Z,19.10
2018-06-14T08:46:58.150Z,19.20
2018-06-14T08:49:26.623Z,19.20
2018-06-14T08:54:23.312Z,19.10
2018-06-14T08:56:51.770Z,19.10
2018-06-14T08:59:20.241Z,19.00
2018-06-14T09:01:48.854Z,19.10
2018-06-14T09:04:17.315Z,19.30
2018-06-14T09:06:45.870Z,19.40
2018-06-14T09:09:15.214Z,19.60
2018-06-14T09:13:13.027Z,19.80
2018-06-14T09:15:41.463Z,19.90
2018-06-14T09:18:09.910Z,20.00
2018-06-14T09:20:38.519Z,20.10
2018-06-14T09:23:06.950Z,20.10
2018-06-14T09:25:35.388Z,20.10
2018-06-14T09:28:03.872Z,20.00
2018-06-14T09:30:32.308Z,20.00
2018-06-14T09:33:00.734Z,20.00
2018-06-14T09:35:29.962Z,20.10
2018-06-14T09:37:58.503Z,20.20
2018-06-14T09:40:27.170Z,20.30
2018-06-14T09:42:55.792Z,20.50
2018-06-14T09:45:24.528Z,20.60
2018-06-14T09:47:53.006Z,20.80
2018-06-14T09:50:21.757Z,20.90
2018-06-14T09:52:50.174Z,21.00
2018-06-14T09:55:18.718Z,21.20
2018-06-14T09:57:47.305Z,21.20
2018-06-14T10:00:15.770Z,21.30
2018-06-14T10:02:44.201Z,21.30
2018-06-14T10:05:12.727Z,21.30
2018-06-14T10:07:41.338Z,21.40
2018-06-14T10:10:10.070Z,21.50
2018-06-14T10:12:39.368Z,21.60
2018-06-14T10:15:08.000Z,21.60
2018-06-14T10:17:36.538Z,21.50
2018-06-14T10:20:05.277Z,21.50
2018-06-14T10:22:33.682Z,21.50
2018-06-14T10:25:02.216Z,21.50
2018-06-14T10:27:30.747Z,21.70
2018-06-14T10:29:59.285Z,21.80
2018-06-14T10:32:27.829Z,22.00
2018-06-14T10:34:56.602Z,22.10
2018-06-14T10:39:53.586Z,22.00
2018-06-14T10:42:21.994Z,22.00
2018-06-14T10:44:50.420Z,22.10
2018-06-14T10:47:18.899Z,22.20
2018-06-14T10:49:47.306Z,22.20
2018-06-14T10:52:16.278Z,22.20
2018-06-14T10:54:44.776Z,22.20
2018-06-14T10:57:13.381Z,22.10
2018-06-14T10:59:41.957Z,22.00
2018-06-14T11:04:38.499Z,21.90
2018-06-14T11:07:07.045Z,22.00
2018-06-14T11:09:35.630Z,22.00
2018-06-14T11:12:04.202Z,21.90
2018-06-14T11:14:32.731Z,22.00
2018-06-14T11:17:01.249Z,22.00
2018-06-14T11:19:29.709Z,22.10
2018-06-14T11:21:58.358Z,22.20
2018-06-14T11:24:26.861Z,22.20
2018-06-14T11:26:55.293Z,22.20
2018-06-14T11:29:23.842Z,22.10
2018-06-14T11:31:52.438Z,22.20
2018-06-14T11:34:20.990Z,22.20
2018-06-14T11:36:49.432Z,22.20
2018-06-14T11:39:17.935Z,22.20
2018-06-14T11:41:46.346Z,22.40
2018-06-14T11:44:14.777Z,22.40
2018-06-14T11:46:43.406Z,22.60
2018-06-14T11:49:11.834Z,22.80
2018-06-14T11:51:40.265Z,22.80
2018-06-14T11:54:08.893Z,22.90
2018-06-14T11:56:37.330Z,22.90
2018-06-14T11:59:05.786Z,23.00
2018-06-14T12:01:34.404Z,23.10
2018-06-14T12:04:02.847Z,23.20
2018-06-14T12:13:15.726Z,23.20
2018-06-14T12:15:44.386Z,23.20
2018-06-14T12:18:12.826Z,23.00
2018-06-14T12:20:41.351Z,23.00
2018-06-14T12:23:09.818Z,22.90
2018-06-14T12:25:38.346Z,22.90
2018-06-14T12:28:07.078Z,23.00
2018-06-14T12:30:35.642Z,23.10
2018-06-14T12:33:04.189Z,23.20
2018-06-14T12:35:32.798Z,23.20
2018-06-14T12:38:01.305Z,23.10
2018-06-14T12:40:30.714Z,22.90
2018-06-14T12:42:59.372Z,23.00
2018-06-14T12:45:27.926Z,23.00
2018-06-14T12:50:24.474Z,23.00
2018-06-14T12:52:53.063Z,23.10
2018-06-14T12:55:21.753Z,23.10
2018-06-14T12:57:50.434Z,23.30
2018-06-14T13:00:19.127Z,23.50
2018-06-14T13:02:47.650Z,23.60
2018-06-14T13:05:16.179Z,23.90
2018-06-14T13:07:44.601Z,24.10
2018-06-14T13:10:13.273Z,24.20
2018-06-14T13:12:41.895Z,24.30
2018-06-14T13:15:10.310Z,24.10
2018-06-14T13:17:38.850Z,24.20
2018-06-14T13:20:07.420Z,24.50
2018-06-14T13:22:35.954Z,24.60
2018-06-14T13:25:04.454Z,24.50
2018-06-14T13:30:01.288Z,24.30
2018-06-14T13:32:29.746Z,24.40
2018-06-14T13:34:58.442Z,24.30
2018-06-14T13:37:27.097Z,24.20
2018-06-14T13:39:55.519Z,24.20
2018-06-14T13:42:24.083Z,24.40
2018-06-14T13:44:52.499Z,24.50
2018-06-14T13:47:21.082Z,24.60
2018-06-14T13:49:49.678Z,24.80
2018-06-14T13:52:18.194Z,25.00
2018-06-14T13:54:46.597Z,25.00
2018-06-14T13:57:15.058Z,24.90
2018-06-14T14:06:27.454Z,24.80
2018-06-14T14:08:55.858Z,24.80
2018-06-14T14:11:24.283Z,24.80
2018-06-14T14:13:52.925Z,24.80
2018-06-14T14:16:21.449Z,24.70
2018-06-14T14:21:18.233Z,24.70
2018-06-14T14:23:46.673Z,24.80
2018-06-14T14:26:15.053Z,24.70
2018-06-14T14:28:43.475Z,24.50
2018-06-14T14:31:11.926Z,24.40
2018-06-14T14:33:40.354Z,24.40
2018-06-14T14:36:08.822Z,24.30
2018-06-14T14:38:37.218Z,24.20
2018-06-14T14:41:06.383Z,24.30
2018-06-14T14:43:34.858Z,24.40
2018-06-14T14:48:31.452Z,24.30
2018-06-14T14:51:00.143Z,24.30
2018-06-14T14:53:28.651Z,24.30
2018-06-14T14:55:57.087Z,24.40
2018-06-14T14:58:25.570Z,24.40
2018-06-14T15:00:54.094Z,24.30
2018-06-14T15:03:22.530Z,24.30
2018-06-14T15:08:19.249Z,24.50
2018-06-14T15:10:47.689Z,24.50
2018-06-14T15:13:16.251Z,24.60
2018-06-14T15:15:44.698Z,24.60
2018-06-14T15:18:13.127Z,24.70
2018-06-14T15:23:09.709Z,24.70
2018-06-14T15:25:38.276Z,24.80
2018-06-14T15:28:06.790Z,24.70
2018-06-14T15:30:35.246Z,24.80
2018-06-14T15:33:03.680Z,24.90
2018-06-14T15:35:32.255Z,24.90
2018-06-14T15:38:00.743Z,24.90
2018-06-14T15:40:29.274Z,25.00
2018-06-14T15:42:57.786Z,25.30
2018-06-14T15:45:26.223Z,25.30
2018-06-14T15:47:54.669Z,25.40
2018-06-14T15:50:23.290Z,25.60
2018-06-14T15:52:51.940Z,25.70
2018-06-14T15:55:31.655Z,25.90
2018-06-14T15:58:00.052Z,26.20
2018-06-14T16:00:28.482Z,26.60
2018-06-14T16:02:56.934Z,27.00
2018-06-14T16:05:25.338Z,27.30
2018-06-14T16:07:53.738Z,27.40
2018-06-14T16:10:22.201Z,27.60
2018-06-14T16:12:50.638Z,27.70
2018-06-14T16:15:19.348Z,27.30
2018-06-14T16:17:47.830Z,27.40
2018-06-14T16:20:16.243Z,27.60
2018-06-14T16:22:44.661Z,27.80
2018-06-14T16:25:13.121Z,27.80
2018-06-14T16:27:41.526Z,27.80
2018-06-14T16:30:09.947Z,27.70
2018-06-14T16:32:38.401Z,27.90
2018-06-14T16:35:06.903Z,28.20
2018-06-14T16:37:35.438Z,28.00
2018-06-14T16:42:32.030Z,28.10
2018-06-14T16:45:00.481Z,28.30
2018-06-14T16:47:28.958Z,28.40
2018-06-14T16:49:57.536Z,28.50
2018-06-14T16:52:26.828Z,28.60
2018-06-14T16:54:55.696Z,28.70
2018-06-14T16:57:24.198Z,28.70
2018-06-14T16:59:52.620Z,28.20
2018-06-14T17:02:21.108Z,27.60
2018-06-14T17:04:49.544Z,26.90
2018-06-14T17:07:18.119Z,26.20
2018-06-14T17:09:46.914Z,25.90
2018-06-14T17:12:15.358Z,26.30
2018-06-14T17:14:43.914Z,26.50
2018-06-14T17:17:12.369Z,26.30
2018-06-14T17:19:40.908Z,26.20
2018-06-14T17:22:09.423Z,26.20
2018-06-14T17:24:38.106Z,25.60
2018-06-14T17:27:06.542Z,24.90
2018-06-14T17:29:35.070Z,24.20
2018-06-14T17:32:03.558Z,23.60
2018-06-14T17:34:31.978Z,23.10
2018-06-14T17:37:00.670Z,22.60
2018-06-14T17:39:29.755Z,22.30
2018-06-14T17:41:58.325Z,22.00
2018-06-14T17:44:27.022Z,21.90
2018-06-14T17:46:55.942Z,21.70
2018-06-14T17:49:24.486Z,21.60
2018-06-14T17:51:52.979Z,21.50
2018-06-14T17:54:21.487Z,21.40
2018-06-14T17:56:50.023Z,21.30
2018-06-14T17:59:18.402Z,21.20
2018-06-14T18:01:47.030Z,21.10
2018-06-14T18:04:15.571Z,21.10
2018-06-14T18:06:44.024Z,21.00
2018-06-14T18:09:12.498Z,20.90
2018-06-14T18:11:41.106Z,20.80
2018-06-14T18:14:09.538Z,20.80
2018-06-14T18:16:38.054Z,20.70
2018-06-14T18:19:06.552Z,20.70
2018-06-14T18:21:35.189Z,20.70
2018-06-14T18:24:03.678Z,20.60
2018-06-14T18:26:32.106Z,20.50
2018-06-14T18:29:00.511Z,20.50
2018-06-14T18:31:28.990Z,20.40
2018-06-14T18:33:57.414Z,20.30
2018-06-14T18:36:25.854Z,20.20
2018-06-14T18:38:54.446Z,20.20
2018-06-14T18:41:23.002Z,20.10
2018-06-14T18:43:51.536Z,20.00
2018-06-14T18:46:19.982Z,20.00
2018-06-14T18:48:48.426Z,19.90
2018-06-14T18:51:16.886Z,19.90
2018-06-14T18:53:45.371Z,19.80
2018-06-14T18:56:13.978Z,19.80
2018-06-14T18:58:42.471Z,19.80
2018-06-14T19:01:11.038Z,19.80
2018-06-14T19:03:39.507Z,19.70
2018-06-14T19:06:07.976Z,19.70
2018-06-14T19:08:36.759Z,19.60
2018-06-14T19:11:06.675Z,19.60
2018-06-14T19:13:35.132Z,19.50
2018-06-14T19:16:04.296Z,19.50
2018-06-14T19:18:34.584Z,19.50
2018-06-14T19:21:03.199Z,19.50
2018-06-14T19:23:31.835Z,19.40
2018-06-14T19:26:00.316Z,19.30
2018-06-14T19:28:28.846Z,19.30
2018-06-14T19:30:57.343Z,19.30
2018-06-14T19:33:26.592Z,19.20
2018-06-14T19:35:55.058Z,19.20
2018-06-14T19:38:23.597Z,19.20
2018-06-14T19:40:52.075Z,19.20
2018-06-14T19:43:20.538Z,19.10
2018-06-14T19:45:49.886Z,19.10
2018-06-14T19:48:18.357Z,19.10
2018-06-14T19:50:46.903Z,19.00
2018-06-14T19:53:15.435Z,18.90
2018-06-14T19:55:43.894Z,18.80
2018-06-14T20:04:56.384Z,18.60
2018-06-14T20:07:25.024Z,18.40
2018-06-14T20:09:53.459Z,18.40
2018-06-14T20:12:21.954Z,18.30
2018-06-14T20:14:50.366Z,18.30
2018-06-14T20:17:18.982Z,18.20
2018-06-14T20:19:47.473Z,18.00
2018-06-14T20:22:15.901Z,17.90
2018-06-14T20:24:44.409Z,17.70
2018-06-14T20:27:12.894Z,17.50
2018-06-14T20:29:41.454Z,17.40
2018-06-14T20:32:09.910Z,17.30
2018-06-14T20:34:38.444Z,17.30
2018-06-14T20:37:06.934Z,17.20
2018-06-14T20:39:35.490Z,17.20
2018-06-14T20:42:04.319Z,17.10
2018-06-14T20:44:32.742Z,17.10
2018-06-14T20:47:01.401Z,17.10
2018-06-14T20:49:29.886Z,17.00
2018-06-14T20:51:58.382Z,17.10
2018-06-14T20:54:26.939Z,17.10
2018-06-14T20:56:55.511Z,17.10
2018-06-14T20:59:23.970Z,17.10
2018-06-14T21:01:52.603Z,17.10
2018-06-14T21:04:21.222Z,17.10
2018-06-14T21:06:49.694Z,17.10
2018-06-14T21:09:18.206Z,17.10
2018-06-14T21:11:46.734Z,17.10
2018-06-14T21:14:15.195Z,17.10
2018-06-14T21:16:43.678Z,17.10
2018-06-14T21:19:12.182Z,17.10
2018-06-14T21:21:40.667Z,17.10
2018-06-14T21:24:09.146Z,17.10
2018-06-14T21:26:38.343Z,17.10
2018-06-14T21:29:06.798Z,17.10
2018-06-14T21:31:35.360Z,17.10
2018-06-14T21:34:03.850Z,17.00
2018-06-14T21:36:32.426Z,17.00
2018-06-14T21:39:00.929Z,17.10
2018-06-14T21:41:29.581Z,17.10
2018-06-14T21:43:58.053Z,17.10
2018-06-14T21:46:26.521Z,17.10
2018-06-14T21:48:55.114Z,17.10
2018-06-14T21:51:23.590Z,17.10
2018-06-14T21:53:52.093Z,17.10
2018-06-14T21:56:20.613Z,17.10
2018-06-14T21:58:49.072Z,17.20
2018-06-14T22:01:17.534Z,17.10
2018-06-14T22:03:51.187Z,17.10
2018-06-14T22:06:19.658Z,17.10
2018-06-14T22:08:48.099Z,17.10
2018-06-14T22:11:16.575Z,17.10
2018-06-14T22:13:45.078Z,17.10
2018-06-14T22:16:13.532Z,17.10
2018-06-14T22:18:42.148Z,17.10
2018-06-14T22:23:38.787Z,17.10
2018-06-14T22:26:07.304Z,17.10
2018-06-14T22:28:35.827Z,17.10
2018-06-14T22:31:04.270Z,17.10
2018-06-14T22:33:44.054Z,17.10
2018-06-14T22:36:13.007Z,17.10
2018-06-14T22:38:41.486Z,17.10
2018-06-14T22:41:10.064Z,17.10
2018-06-14T22:43:38.519Z,17.10
2018-06-14T22:46:06.990Z,17.10
2018-06-14T22:48:35.545Z,17.10
2018-06-14T22:51:17.081Z,17.10
2018-06-14T22:53:45.958Z,17.10
2018-06-14T22:56:14.566Z,17.20
2018-06-14T22:58:43.150Z,17.20
2018-06-14T23:01:49.330Z,17.20
2018-06-14T23:04:19.865Z,17.10
2018-06-14T23:06:48.359Z,17.10
2018-06-14T23:10:40.198Z,17.10
2018-06-14T23:13:09.897Z,17.10
2018-06-14T23:18:06.563Z,17.10
2018-06-14T23:20:35.957Z,17.10
2018-06-14T23:25:33.770Z,17.00
2018-06-14T23:28:02.284Z,17.00
2018-06-14T23:30:30.782Z,17.00
2018-06-14T23:32:59.327Z,16.90
2018-06-14T23:35:27.787Z,16.90
2018-06-14T23:47:08.567Z,16.90
2018-06-14T23:49:37.027Z,16.90
2018-06-14T23:52:05.757Z,16.80
2018-06-14T23:54:34.225Z,16.80
2018-06-14T23:57:02.712Z,16.80
2018-06-14T23:59:31.162Z,16.70
